createdAt,value
2023-01-17T00:02:01.615Z,1.67
2023-01-17T00:04:48.111Z,1.40
2023-01-17T00:07:37.185Z,1.30
2023-01-17T00:10:12.133Z,1.27
2023-01-17T00:12:39.593Z,1.40
2023-01-17T00:15:07.290Z,1.43
2023-01-17T00:17:34.279Z,1.30
2023-01-17T00:20:20.319Z,1.40
2023-01-17T00:23:05.919Z,1.50
2023-01-17T00:25:56.329Z,1.40
2023-01-17T00:28:24.009Z,1.30
2023-01-17T00:30:51.160Z,1.60
2023-01-17T00:33:18.492Z,1.33
2023-01-17T00:35:46.027Z,1.57
2023-01-17T00:38:15.999Z,1.60
2023-01-17T00:40:44.603Z,1.67
2023-01-17T00:43:31.094Z,1.73
2023-01-17T00:46:17.203Z,1.50
2023-01-17T00:49:02.819Z,1.67
2023-01-17T00:51:49.954Z,1.37
2023-01-17T00:54:37.293Z,1.50
2023-01-17T00:57:23.855Z,1.50
2023-01-17T01:00:10.018Z,2.00
2023-01-17T01:02:56.810Z,1.80
2023-01-17T01:05:42.478Z,1.37
2023-01-17T01:08:39.822Z,1.60
2023-01-17T01:11:30.574Z,1.70
2023-01-17T01:14:17.164Z,1.60
2023-01-17T01:17:02.899Z,1.73
2023-01-17T01:19:48.609Z,1.70
2023-01-17T01:22:34.155Z,1.70
2023-01-17T01:25:19.837Z,1.70
2023-01-17T01:28:05.497Z,1.90
2023-01-17T01:30:50.939Z,1.93
2023-01-17T01:33:20.749Z,1.90
2023-01-17T01:35:49.997Z,1.97
2023-01-17T01:38:18.763Z,2.20
2023-01-17T01:40:54.720Z,2.53
2023-01-17T01:43:41.617Z,2.40
2023-01-17T01:46:12.496Z,2.60
2023-01-17T01:48:48.921Z,2.60
2023-01-17T01:51:22.597Z,2.60
2023-01-17T01:53:54.483Z,2.60
2023-01-17T01:56:23.897Z,2.73
2023-01-17T01:58:52.584Z,3.13
2023-01-17T02:01:19.832Z,3.27
2023-01-17T02:03:48.086Z,3.27
2023-01-17T02:06:29.070Z,3.40
2023-01-17T02:09:00.170Z,3.47
2023-01-17T02:11:27.806Z,3.10
2023-01-17T02:13:54.664Z,3.33
2023-01-17T02:16:45.799Z,3.50
2023-01-17T02:19:43.837Z,3.80
2023-01-17T02:22:46.532Z,3.80
2023-01-17T02:25:37.962Z,4.70
2023-01-17T02:28:42.247Z,4.30
2023-01-17T02:31:20.904Z,4.83
2023-01-17T02:34:03.832Z,4.80
2023-01-17T02:36:38.191Z,6.20
2023-01-17T02:39:33.693Z,6.60
2023-01-17T02:42:05.837Z,6.17
2023-01-17T02:44:41.264Z,7.20
2023-01-17T02:47:29.176Z,6.83
2023-01-17T02:50:03.678Z,6.90
2023-01-17T02:52:54.891Z,6.33
2023-01-17T02:55:33.451Z,6.77
2023-01-17T02:58:05.978Z,6.70
2023-01-17T03:00:42.236Z,7.07
2023-01-17T03:03:11.898Z,6.50
2023-01-17T03:05:49.379Z,7.17
2023-01-17T03:08:17.373Z,7.73
2023-01-17T03:10:45.858Z,7.60
2023-01-17T03:13:13.038Z,7.17
2023-01-17T03:15:41.322Z,8.00
2023-01-17T03:18:15.338Z,8.13
2023-01-17T03:20:42.954Z,8.37
2023-01-17T03:23:09.912Z,7.87
2023-01-17T03:25:36.995Z,8.40
2023-01-17T03:28:04.567Z,8.60
2023-01-17T03:30:31.424Z,9.30
2023-01-17T03:32:58.400Z,9.90
2023-01-17T03:35:25.325Z,9.67
2023-01-17T03:37:52.240Z,10.33
2023-01-17T03:40:19.210Z,10.90
2023-01-17T03:42:46.018Z,10.90
2023-01-17T03:45:12.985Z,11.07
2023-01-17T03:47:39.887Z,11.33
2023-01-17T03:50:07.185Z,11.73
2023-01-17T03:52:34.344Z,12.07
2023-01-17T03:55:02.907Z,11.90
2023-01-17T03:57:30.033Z,12.80
2023-01-17T03:59:57.232Z,11.20
2023-01-17T04:02:24.791Z,11.73
2023-01-17T04:04:51.742Z,11.73
2023-01-17T04:07:18.697Z,11.97
2023-01-17T04:09:47.913Z,12.67
2023-01-17T04:12:15.106Z,11.27
2023-01-17T04:14:41.995Z,7.83
2023-01-17T04:17:17.698Z,5.00
2023-01-17T04:19:44.736Z,4.17
2023-01-17T04:22:12.197Z,3.80
2023-01-17T04:24:39.262Z,3.10
2023-01-17T04:27:06.289Z,2.97
2023-01-17T04:29:36.227Z,3.23
2023-01-17T04:32:03.191Z,3.40
2023-01-17T04:34:29.994Z,3.30
2023-01-17T04:36:56.861Z,3.17
2023-01-17T04:39:23.725Z,4.03
2023-01-17T04:41:50.593Z,3.57
2023-01-17T04:44:17.441Z,3.77
2023-01-17T04:46:44.342Z,4.13
2023-01-17T04:49:11.299Z,3.67
2023-01-17T04:51:38.267Z,4.30
2023-01-17T04:54:05.235Z,4.17
2023-01-17T04:56:32.223Z,4.70
2023-01-17T04:58:58.970Z,4.40
2023-01-17T05:01:26.284Z,4.50
2023-01-17T05:03:53.147Z,5.50
2023-01-17T05:06:20.038Z,5.40
2023-01-17T05:08:46.980Z,5.60
2023-01-17T05:11:13.984Z,5.80
2023-01-17T05:13:40.786Z,7.73
2023-01-17T05:16:08.065Z,8.10
2023-01-17T05:18:34.984Z,9.63
2023-01-17T05:21:05.356Z,10.07
2023-01-17T05:23:33.246Z,8.80
2023-01-17T05:26:00.143Z,8.33
2023-01-17T05:28:27.103Z,6.53
2023-01-17T05:30:53.964Z,5.80
2023-01-17T05:33:20.762Z,3.10
2023-01-17T05:35:47.739Z,2.40
2023-01-17T05:38:14.455Z,2.23
2023-01-17T05:40:41.466Z,1.80
2023-01-17T05:43:09.097Z,1.40
2023-01-17T05:45:36.509Z,0.80
2023-01-17T05:48:04.246Z,0.87
2023-01-17T05:50:38.206Z,0.87
2023-01-17T05:53:11.280Z,1.00
2023-01-17T05:55:39.241Z,0.47
2023-01-17T05:58:07.498Z,0.67
2023-01-17T06:00:34.822Z,0.80
2023-01-17T06:03:01.956Z,0.67
2023-01-17T06:05:29.483Z,0.70
2023-01-17T06:07:56.876Z,0.60
2023-01-17T06:10:24.718Z,1.07
2023-01-17T06:13:04.680Z,1.70
2023-01-17T06:15:32.110Z,0.90
2023-01-17T06:17:59.244Z,1.23
2023-01-17T06:20:26.207Z,1.40
2023-01-17T06:22:53.221Z,1.07
2023-01-17T06:25:22.220Z,1.20
2023-01-17T06:27:49.370Z,1.00
2023-01-17T06:30:16.715Z,1.00
2023-01-17T06:32:43.682Z,1.20
2023-01-17T06:35:10.570Z,1.37
2023-01-17T06:37:37.398Z,1.30
2023-01-17T06:40:04.575Z,1.20
2023-01-17T06:42:31.476Z,1.40
2023-01-17T06:44:58.431Z,0.90
2023-01-17T06:47:25.394Z,1.27
2023-01-17T06:49:52.048Z,1.00
2023-01-17T06:52:19.026Z,1.40
2023-01-17T06:54:45.790Z,0.80
2023-01-17T06:57:12.570Z,1.07
2023-01-17T06:59:39.471Z,1.20
2023-01-17T07:02:06.305Z,1.00
2023-01-17T07:04:34.669Z,1.27
2023-01-17T07:07:01.670Z,1.13
2023-01-17T07:09:28.562Z,1.60
2023-01-17T07:12:02.053Z,1.00
2023-01-17T07:14:29.334Z,1.50
2023-01-17T07:16:57.371Z,1.30
2023-01-17T07:19:24.653Z,1.60
2023-01-17T07:21:52.989Z,1.30
2023-01-17T07:24:21.039Z,1.77
2023-01-17T07:26:52.354Z,1.53
2023-01-17T07:29:19.361Z,2.33
2023-01-17T07:31:46.140Z,1.53
2023-01-17T07:34:13.060Z,1.23
2023-01-17T07:36:40.188Z,1.47
2023-01-17T07:39:07.192Z,1.40
2023-01-17T07:41:41.491Z,1.10
2023-01-17T07:44:11.196Z,1.50
2023-01-17T07:46:38.110Z,2.83
2023-01-17T07:49:07.832Z,1.83
2023-01-17T07:51:35.202Z,1.67
2023-01-17T07:54:02.132Z,1.63
2023-01-17T07:56:29.170Z,1.47
2023-01-17T07:58:56.218Z,1.30
2023-01-17T08:01:23.299Z,1.20
2023-01-17T08:03:53.532Z,1.20
2023-01-17T08:06:24.066Z,1.17
2023-01-17T08:08:51.373Z,1.30
2023-01-17T08:11:18.427Z,0.97
2023-01-17T08:13:45.285Z,1.33
2023-01-17T08:16:13.516Z,1.93
2023-01-17T08:18:40.952Z,2.33
2023-01-17T08:21:18.012Z,2.10
2023-01-17T08:23:48.960Z,1.87
2023-01-17T08:26:23.447Z,2.00
2023-01-17T08:29:01.097Z,2.20
2023-01-17T08:31:31.118Z,1.37
2023-01-17T08:33:58.183Z,1.90
2023-01-17T08:36:26.180Z,1.70
2023-01-17T08:38:53.957Z,1.93
2023-01-17T08:41:22.245Z,1.37
2023-01-17T08:43:49.894Z,1.70
2023-01-17T08:46:18.129Z,1.90
2023-01-17T08:48:45.331Z,1.90
2023-01-17T08:51:12.435Z,1.90
2023-01-17T08:53:39.361Z,2.10
2023-01-17T08:56:06.530Z,1.83
2023-01-17T08:58:35.149Z,1.83
2023-01-17T09:01:03.334Z,2.00
2023-01-17T09:03:31.362Z,2.00
2023-01-17T09:06:03.514Z,2.10
2023-01-17T09:08:30.879Z,2.40
2023-01-17T09:10:58.096Z,2.40
2023-01-17T09:13:24.937Z,2.00
2023-01-17T09:15:56.595Z,2.17
2023-01-17T09:18:24.319Z,2.03
2023-01-17T09:20:55.171Z,2.13
2023-01-17T09:23:30.101Z,1.83
2023-01-17T09:25:58.931Z,1.90
2023-01-17T09:28:30.349Z,1.40
2023-01-17T09:30:57.162Z,1.57
2023-01-17T09:33:24.618Z,1.70
2023-01-17T09:35:51.590Z,1.10
2023-01-17T09:38:18.441Z,1.10
2023-01-17T09:40:48.329Z,1.20
2023-01-17T09:43:40.918Z,1.40
2023-01-17T09:46:24.151Z,0.93
2023-01-17T09:49:10.307Z,1.03
2023-01-17T09:51:40.038Z,1.17
2023-01-17T09:54:21.676Z,1.40
2023-01-17T09:57:01.124Z,1.47
2023-01-17T09:59:38.030Z,1.50
2023-01-17T10:02:23.889Z,1.80
2023-01-17T10:05:23.018Z,2.23
2023-01-17T10:07:55.835Z,1.27
2023-01-17T10:10:39.351Z,1.40
2023-01-17T10:13:31.183Z,1.43
2023-01-17T10:16:12.848Z,1.07
2023-01-17T10:18:59.128Z,1.70
2023-01-17T10:22:04.402Z,1.17
2023-01-17T10:25:08.339Z,0.90
2023-01-17T10:27:43.584Z,1.20
2023-01-17T10:30:45.266Z,1.73
2023-01-17T10:33:55.296Z,1.10
2023-01-17T10:36:27.108Z,1.40
2023-01-17T10:39:02.055Z,1.30
2023-01-17T10:41:30.909Z,1.20
2023-01-17T10:44:29.849Z,1.00
2023-01-17T10:47:05.652Z,1.00
2023-01-17T10:49:32.657Z,0.87
2023-01-17T10:52:33.325Z,0.70
2023-01-17T10:55:17.105Z,1.13
2023-01-17T10:57:46.064Z,0.90
2023-01-17T11:00:44.190Z,0.90
2023-01-17T11:03:13.916Z,0.80
2023-01-17T11:05:43.023Z,0.70
2023-01-17T11:08:14.790Z,0.83
2023-01-17T11:10:48.513Z,0.90
2023-01-17T11:13:37.228Z,0.50
2023-01-17T11:16:10.919Z,0.70
2023-01-17T11:18:40.822Z,1.20
2023-01-17T11:21:14.649Z,1.30
2023-01-17T11:23:46.595Z,1.20
2023-01-17T11:26:24.828Z,1.00
2023-01-17T11:28:52.540Z,1.53
2023-01-17T11:31:19.549Z,1.47
2023-01-17T11:33:54.007Z,1.20
2023-01-17T11:36:32.623Z,0.90
2023-01-17T11:39:05.665Z,1.20
2023-01-17T11:41:35.600Z,1.70
2023-01-17T11:44:04.619Z,1.70
2023-01-17T11:46:32.517Z,1.40
2023-01-17T11:49:01.230Z,1.53
2023-01-17T11:51:37.487Z,1.70
2023-01-17T11:54:14.347Z,1.80
2023-01-17T11:56:46.702Z,1.60
2023-01-17T11:59:16.204Z,1.80
2023-01-17T12:02:33.461Z,1.87
2023-01-17T12:05:15.657Z,0.70
2023-01-17T12:08:04.701Z,1.30
2023-01-17T12:11:14.113Z,1.77
2023-01-17T12:14:02.166Z,1.60
2023-01-17T12:16:59.614Z,1.20
2023-01-17T12:19:34.582Z,1.17
2023-01-17T12:22:23.082Z,1.00
2023-01-17T12:25:15.117Z,1.00
2023-01-17T12:28:06.927Z,1.30
2023-01-17T12:31:04.838Z,1.20
2023-01-17T12:33:59.887Z,0.90
2023-01-17T12:36:33.335Z,1.50
2023-01-17T12:39:06.006Z,1.10
2023-01-17T12:42:06.211Z,1.30
2023-01-17T12:44:54.140Z,1.00
2023-01-17T12:47:21.823Z,0.70
2023-01-17T12:50:04.725Z,0.83
2023-01-17T12:52:57.374Z,1.30
2023-01-17T12:55:45.733Z,0.97
2023-01-17T12:58:19.632Z,1.03
2023-01-17T13:00:51.753Z,0.87
2023-01-17T13:03:32.948Z,1.20
2023-01-17T13:06:03.024Z,1.00
2023-01-17T13:08:41.113Z,0.80
2023-01-17T13:11:30.919Z,0.83
2023-01-17T13:14:00.067Z,1.23
2023-01-17T13:16:42.316Z,0.93
2023-01-17T13:19:48.111Z,1.03
2023-01-17T13:22:18.691Z,1.20
2023-01-17T13:25:14.828Z,1.07
2023-01-17T13:28:03.494Z,1.37
2023-01-17T13:30:43.629Z,0.87
2023-01-17T13:33:27.471Z,1.20
2023-01-17T13:36:30.125Z,0.97
2023-01-17T13:39:05.952Z,1.10
2023-01-17T13:41:38.737Z,1.00
2023-01-17T13:44:24.782Z,1.07
2023-01-17T13:46:56.012Z,0.90
2023-01-17T13:49:34.274Z,1.00
2023-01-17T13:52:12.529Z,0.80
2023-01-17T13:54:55.768Z,0.80
2023-01-17T13:57:40.128Z,1.00
2023-01-17T14:00:16.869Z,1.00
2023-01-17T14:02:44.074Z,1.10
2023-01-17T14:05:21.453Z,0.93
2023-01-17T14:08:22.107Z,1.10
2023-01-17T14:10:53.443Z,1.30
2023-01-17T14:13:34.670Z,1.43
2023-01-17T14:16:03.455Z,0.90
2023-01-17T14:18:49.162Z,1.17
2023-01-17T14:21:35.830Z,1.40
2023-01-17T14:24:04.762Z,1.20
2023-01-17T14:26:33.585Z,0.90
2023-01-17T14:29:38.867Z,0.90
2023-01-17T14:32:11.234Z,1.10
2023-01-17T14:34:38.093Z,1.13
2023-01-17T14:37:47.009Z,0.73
2023-01-17T14:40:38.514Z,0.80
2023-01-17T14:43:18.856Z,9.33
2023-01-17T14:45:46.850Z,11.23
2023-01-17T14:48:19.513Z,22.60
2023-01-17T14:50:49.435Z,29.33
2023-01-17T14:53:21.939Z,4.73
2023-01-17T14:55:51.960Z,2.10
2023-01-17T14:58:27.419Z,2.03
2023-01-17T15:00:58.502Z,1.73
2023-01-17T15:03:25.575Z,4.40
2023-01-17T15:05:54.753Z,3.30
2023-01-17T15:08:29.910Z,3.00
2023-01-17T15:11:05.995Z,3.83
2023-01-17T15:13:55.151Z,1.63
2023-01-17T15:16:34.803Z,1.40
2023-01-17T15:19:02.815Z,1.27
2023-01-17T15:21:37.172Z,1.10
2023-01-17T15:24:08.543Z,1.30
2023-01-17T15:26:39.068Z,1.60
2023-01-17T15:29:12.513Z,1.33
2023-01-17T15:32:00.460Z,1.20
2023-01-17T15:34:37.257Z,1.50
2023-01-17T15:37:10.643Z,1.87
2023-01-17T15:39:41.720Z,2.17
2023-01-17T15:42:22.747Z,2.27
2023-01-17T15:44:55.010Z,2.27
2023-01-17T15:47:41.623Z,1.90
2023-01-17T15:50:20.888Z,1.70
2023-01-17T15:52:53.442Z,2.00
2023-01-17T15:55:32.194Z,1.70
2023-01-17T15:57:59.313Z,2.30
2023-01-17T16:00:39.499Z,3.57
2023-01-17T16:03:28.388Z,3.10
2023-01-17T16:05:58.105Z,2.70
2023-01-17T16:08:40.180Z,2.70
2023-01-17T16:11:08.924Z,2.53
2023-01-17T16:13:43.485Z,2.43
2023-01-17T16:16:20.163Z,2.60
2023-01-17T16:18:49.317Z,1.97
2023-01-17T16:21:30.349Z,2.00
2023-01-17T16:23:58.432Z,1.83
2023-01-17T16:26:25.400Z,1.90
2023-01-17T16:28:52.650Z,1.80
2023-01-17T16:31:19.955Z,2.30
2023-01-17T16:33:49.931Z,2.20
2023-01-17T16:36:17.368Z,2.73
2023-01-17T16:38:46.087Z,2.33
2023-01-17T16:41:13.256Z,3.20
2023-01-17T16:43:40.333Z,3.73
2023-01-17T16:46:09.570Z,2.97
2023-01-17T16:48:37.804Z,2.70
2023-01-17T16:51:09.576Z,2.50
2023-01-17T16:53:37.701Z,2.50
2023-01-17T16:56:12.379Z,2.63
2023-01-17T16:58:40.729Z,2.93
2023-01-17T17:01:11.689Z,2.57
2023-01-17T17:03:38.841Z,2.53
2023-01-17T17:06:05.911Z,3.00
2023-01-17T17:08:34.674Z,2.80
2023-01-17T17:11:16.823Z,3.03
2023-01-17T17:13:48.176Z,2.70
2023-01-17T17:16:16.273Z,3.20
2023-01-17T17:18:44.809Z,3.43
2023-01-17T17:21:12.091Z,3.47
2023-01-17T17:23:39.294Z,2.97
2023-01-17T17:26:06.459Z,3.13
2023-01-17T17:28:33.481Z,3.40
2023-01-17T17:31:11.703Z,3.30
2023-01-17T17:33:38.944Z,3.40
2023-01-17T17:36:08.225Z,3.53
2023-01-17T17:38:35.253Z,4.00
2023-01-17T17:41:10.153Z,3.67
2023-01-17T17:43:41.380Z,3.70
2023-01-17T17:46:08.630Z,4.27
2023-01-17T17:48:35.915Z,4.40
2023-01-17T17:51:03.556Z,4.17
2023-01-17T17:53:30.631Z,3.97
2023-01-17T17:56:03.215Z,5.50
2023-01-17T17:58:34.148Z,5.50
2023-01-17T18:01:05.711Z,4.17
2023-01-17T18:03:34.001Z,4.60
2023-01-17T18:06:07.126Z,5.07
2023-01-17T18:08:35.358Z,4.60
2023-01-17T18:11:05.121Z,5.17
2023-01-17T18:13:33.433Z,5.20
2023-01-17T18:16:09.644Z,4.57
2023-01-17T18:18:39.583Z,5.20
2023-01-17T18:21:23.926Z,5.13
2023-01-17T18:24:00.001Z,4.80
2023-01-17T18:26:29.395Z,5.13
2023-01-17T18:28:58.143Z,5.07
2023-01-17T18:31:27.289Z,5.10
2023-01-17T18:33:59.891Z,4.90
2023-01-17T18:36:28.811Z,5.00
2023-01-17T18:38:59.002Z,4.70
2023-01-17T18:41:28.948Z,4.60
2023-01-17T18:51:35.856Z,4.67
2023-01-17T18:54:06.948Z,6.07
2023-01-17T18:56:35.461Z,7.80
2023-01-17T18:59:06.374Z,8.63
2023-01-17T19:01:36.219Z,7.67
2023-01-17T19:04:05.931Z,6.87
2023-01-17T19:06:39.534Z,6.17
2023-01-17T19:09:08.433Z,5.93
2023-01-17T19:11:38.887Z,6.07
2023-01-17T19:14:06.962Z,6.27
2023-01-17T19:16:39.425Z,6.93
2023-01-17T19:19:14.498Z,5.90
2023-01-17T19:21:41.817Z,6.33
2023-01-17T19:24:10.897Z,7.33
2023-01-17T19:26:37.662Z,9.43
2023-01-17T19:29:05.381Z,9.73
2023-01-17T19:31:36.014Z,9.53
2023-01-17T19:34:02.957Z,9.63
2023-01-17T19:36:33.964Z,8.37
2023-01-17T19:39:05.838Z,8.33
2023-01-17T19:41:34.773Z,8.27
2023-01-17T19:44:04.566Z,7.97
2023-01-17T19:46:32.577Z,7.90
2023-01-17T19:49:02.799Z,8.30
2023-01-17T19:51:30.296Z,7.80
2023-01-17T19:53:59.953Z,9.23
2023-01-17T19:56:28.620Z,9.33
2023-01-17T19:59:01.329Z,8.27
2023-01-17T20:01:31.354Z,7.90
2023-01-17T20:03:59.021Z,7.87
2023-01-17T20:06:32.253Z,9.40
2023-01-17T20:08:59.008Z,8.80
2023-01-17T20:11:27.892Z,8.60
2023-01-17T20:13:56.861Z,8.93
2023-01-17T20:16:25.348Z,8.20
2023-01-17T20:18:52.994Z,8.07
2023-01-17T20:21:22.163Z,7.40
2023-01-17T20:23:50.770Z,7.17
2023-01-17T20:26:31.284Z,7.03
2023-01-17T20:28:58.506Z,7.20
2023-01-17T20:31:26.001Z,7.63
2023-01-17T20:33:55.110Z,7.90
2023-01-17T20:36:25.148Z,7.77
2023-01-17T20:38:53.373Z,7.80
2023-01-17T20:41:41.075Z,7.00
2023-01-17T20:44:11.413Z,7.17
2023-01-17T20:46:41.376Z,7.20
2023-01-17T20:49:15.047Z,7.33
2023-01-17T20:51:44.609Z,7.07
2023-01-17T20:54:20.355Z,7.63
2023-01-17T20:56:48.522Z,7.00
2023-01-17T20:59:18.049Z,6.97
2023-01-17T21:01:45.506Z,7.43
2023-01-17T21:04:13.236Z,7.20
2023-01-17T21:06:41.196Z,6.60
2023-01-17T21:09:10.960Z,6.40
2023-01-17T21:11:38.090Z,6.70
2023-01-17T21:14:06.232Z,6.03
2023-01-17T21:16:34.391Z,6.27
2023-01-17T21:19:04.638Z,7.27
2023-01-17T21:21:31.878Z,7.30
2023-01-17T21:24:00.251Z,6.57
2023-01-17T21:26:28.738Z,6.30
2023-01-17T21:28:56.123Z,6.93
2023-01-17T21:31:29.326Z,6.13
2023-01-17T21:34:04.652Z,6.73
2023-01-17T21:36:34.480Z,7.17
2023-01-17T21:39:04.960Z,7.77
2023-01-17T21:41:37.119Z,6.13
2023-01-17T21:44:10.288Z,6.77
2023-01-17T21:46:39.307Z,7.13
2023-01-17T21:49:10.722Z,6.50
2023-01-17T21:51:53.349Z,6.97
2023-01-17T21:54:41.243Z,5.80
2023-01-17T21:57:28.002Z,5.23
2023-01-17T21:59:54.814Z,5.27
2023-01-17T22:02:22.201Z,4.83
2023-01-17T22:04:49.208Z,5.50
2023-01-17T22:07:16.754Z,5.40
2023-01-17T22:09:43.645Z,5.57
2023-01-17T22:12:10.487Z,5.43
2023-01-17T22:14:38.438Z,6.00
2023-01-17T22:17:05.420Z,4.90
2023-01-17T22:19:32.349Z,5.50
2023-01-17T22:21:59.189Z,4.97
2023-01-17T22:24:26.010Z,5.50
2023-01-17T22:26:54.669Z,5.00
2023-01-17T22:29:24.423Z,4.97
2023-01-17T22:31:51.347Z,5.37
2023-01-17T22:34:19.081Z,5.13
2023-01-17T22:36:46.100Z,5.07
2023-01-17T22:39:15.080Z,4.73
2023-01-17T22:41:42.228Z,5.00
2023-01-17T22:44:09.370Z,4.80
2023-01-17T22:46:38.632Z,5.53
2023-01-17T22:49:07.894Z,5.13
2023-01-17T22:51:35.520Z,5.87
2023-01-17T22:54:03.291Z,5.07
2023-01-17T22:56:32.612Z,5.97
2023-01-17T22:59:03.526Z,6.50
2023-01-17T23:01:32.954Z,5.30
2023-01-17T23:04:04.824Z,5.80
2023-01-17T23:06:37.394Z,6.23
2023-01-17T23:09:12.432Z,5.40
2023-01-17T23:11:52.954Z,6.03
2023-01-17T23:14:22.578Z,6.27
2023-01-17T23:17:22.527Z,5.93
2023-01-17T23:19:52.665Z,6.03
2023-01-17T23:22:22.450Z,6.57
2023-01-17T23:24:58.001Z,6.73
2023-01-17T23:27:46.116Z,6.17
2023-01-17T23:30:28.818Z,6.87
2023-01-17T23:32:58.752Z,6.23
2023-01-17T23:35:41.538Z,6.53
2023-01-17T23:38:34.936Z,6.50
2023-01-17T23:41:26.363Z,6.97
2023-01-17T23:43:55.182Z,6.17
2023-01-17T23:46:23.119Z,6.10
2023-01-17T23:48:50.290Z,7.13
2023-01-17T23:51:17.107Z,6.83
2023-01-17T23:53:44.098Z,7.07
2023-01-17T23:56:16.667Z,7.13
2023-01-17T23:58:43.579Z,7.07
